Overview Statistics Trail Chart Weather Telemetry Raw packets
 

This is the latest recevied telemetry packets stored in our database for station/object DL3MC-20. If no packets are shown the sender has not sent any telemetry packets the latest 10 day(s).

Telemetry packets is used to share measurements like repeteater parameters, battery voltage, radiation readings (or any other measurements).

<< 1 2 >>
Time Press* Temp.in* Hum* QNH* Temp.out*
1777999806 992.4 hPa 24.6 C deg 36.2 % 1008.1 hPa 0 C deg
1777999804 992.4 hPa 24.6 C deg 36.2 % 1008.1 hPa 0 C deg
1777997989 992.6 hPa 25.5 C deg 34.5 % 1008.2 hPa 0 C deg
1777996183 992.4 hPa 26.4 C deg 33.5 % 1008 hPa 0 C deg
1777996174 992.4 hPa 26.4 C deg 33.5 % 1008 hPa 0 C deg
1777994359 992.4 hPa 27 C deg 33.3 % 1007.9 hPa 0 C deg
1777992544 992.3 hPa 28.9 C deg 30.4 % 1007.8 hPa 0 C deg
1777990735 991.7 hPa 30.2 C deg 27.2 % 1007 hPa 0 C deg
1777990729 991.7 hPa 30.2 C deg 27.2 % 1007 hPa 0 C deg
1777988919 991.8 hPa 30.9 C deg 27 % 1007.2 hPa 0 C deg
1777988914 991.8 hPa 30.9 C deg 27 % 1007.2 hPa 0 C deg
1777987100 992 hPa 31.3 C deg 27.9 % 1007.4 hPa 0 C deg
1777987099 992 hPa 31.3 C deg 27.9 % 1007.4 hPa 0 C deg
1777985294 992.2 hPa 31.3 C deg 28.6 % 1007.5 hPa 0 C deg
1777985284 992.2 hPa 31.3 C deg 28.6 % 1007.5 hPa 0 C deg
1777983471 992.4 hPa 31.9 C deg 27.7 % 1007.8 hPa 0 C deg
1777983468 992.4 hPa 31.9 C deg 27.7 % 1007.8 hPa 0 C deg
1777981656 992.8 hPa 29.6 C deg 30.7 % 1008.3 hPa 0 C deg
1777981653 992.8 hPa 29.6 C deg 30.7 % 1008.3 hPa 0 C deg
1777979838 993.2 hPa 28.9 C deg 32 % 1008.6 hPa 0 C deg
1777978023 993.5 hPa 28.1 C deg 33.5 % 1009 hPa 0 C deg
1777976213 993.7 hPa 27.2 C deg 35.6 % 1009.3 hPa 0 C deg
1777976208 993.7 hPa 27.2 C deg 35.6 % 1009.3 hPa 0 C deg
1777975331 994 hPa 26.2 C deg 36.6 % 1009.6 hPa 0 C deg
1777973516 994.2 hPa 25.7 C deg 36.4 % 1009.8 hPa 0 C deg
*Used Equation Coefficients:
Press: 0, 1, 0
Temp.in: 0, 1, 0
Hum: 0, 1, 0
QNH: 0, 1, 0
Temp.out: 0, 1, 0

  • The parameter names for the analog channels will be Value1, Value2, Value3 (up to Value5) if station has not sent a PARAM-packet that specifies the parameter names for each analog channel.
  • Each analog value is a decimal number between 000 and 255 (according to APRS specifications). The receiver use the telemetry equation coefficientsto to restore the original sensor values. If no EQNS-packet with equation coefficients is sent we will show the values as is (this corresponds to the equation coefficients a=0, b=1 and c=0).
    The sent equation coefficients is used in the equation: a * value2 + b * value + c.
  • The units for the analog values will not be shown if station has not sent a UNIT-packet specifying what unit's to use.
  • The parameter names for the digital bits will be Bit1, Bit2, Bit3 (up to Bit8) if station has not sent a PARAM-packet that specifies the parameter names for each digital bit.
  • All bit labels will be named "On" if station has not sent a UNIT-packet that specifies the label of each bit.
  • A bit is considered to be On when the bit is 1 if station has not sent a BITS-packet that specifies another "Bit sense" (a BITS-packet specify the state of the bits that match the BIT labels)